sensor_id;sensor_type;location;lat;lon;timestamp;P1;durP1;ratioP1;P2;durP2;ratioP2
10934;SDS011;5520;45.752;4.874;2023-11-18T00:01:33;7.97;;;4.70;;
10934;SDS011;5520;45.752;4.874;2023-11-18T00:04:01;6.63;;;4.50;;
10934;SDS011;5520;45.752;4.874;2023-11-18T00:06:30;9.20;;;5.10;;
10934;SDS011;5520;45.752;4.874;2023-11-18T00:08:59;8.87;;;5.30;;
10934;SDS011;5520;45.752;4.874;2023-11-18T00:11:27;7.23;;;4.73;;
10934;SDS011;5520;45.752;4.874;2023-11-18T00:13:55;8.27;;;4.87;;
10934;SDS011;5520;45.752;4.874;2023-11-18T00:16:25;11.13;;;6.83;;
10934;SDS011;5520;45.752;4.874;2023-11-18T00:18:53;11.87;;;7.40;;
10934;SDS011;5520;45.752;4.874;2023-11-18T00:21:22;10.47;;;6.87;;
10934;SDS011;5520;45.752;4.874;2023-11-18T00:23:50;8.33;;;5.10;;
10934;SDS011;5520;45.752;4.874;2023-11-18T00:26:19;6.27;;;5.63;;
10934;SDS011;5520;45.752;4.874;2023-11-18T00:28:48;7.30;;;5.40;;
10934;SDS011;5520;45.752;4.874;2023-11-18T00:31:16;7.00;;;5.30;;
10934;SDS011;5520;45.752;4.874;2023-11-18T00:33:46;6.87;;;4.90;;
10934;SDS011;5520;45.752;4.874;2023-11-18T00:36:14;7.83;;;5.20;;
10934;SDS011;5520;45.752;4.874;2023-11-18T00:38:43;6.87;;;5.03;;
10934;SDS011;5520;45.752;4.874;2023-11-18T00:41:11;7.57;;;4.53;;
10934;SDS011;5520;45.752;4.874;2023-11-18T00:43:39;6.13;;;4.73;;
10934;SDS011;5520;45.752;4.874;2023-11-18T00:46:08;8.97;;;5.13;;
10934;SDS011;5520;45.752;4.874;2023-11-18T00:48:36;10.23;;;6.23;;
10934;SDS011;5520;45.752;4.874;2023-11-18T00:51:07;8.30;;;5.33;;
10934;SDS011;5520;45.752;4.874;2023-11-18T00:53:35;8.30;;;6.20;;
10934;SDS011;5520;45.752;4.874;2023-11-18T00:56:04;10.97;;;6.53;;
10934;SDS011;5520;45.752;4.874;2023-11-18T00:58:34;7.83;;;6.33;;
10934;SDS011;5520;45.752;4.874;2023-11-18T01:01:07;7.97;;;6.27;;
10934;SDS011;5520;45.752;4.874;2023-11-18T01:03:35;7.93;;;5.87;;
10934;SDS011;5520;45.752;4.874;2023-11-18T01:06:04;7.33;;;5.57;;
10934;SDS011;5520;45.752;4.874;2023-11-18T01:08:34;8.90;;;5.40;;
10934;SDS011;5520;45.752;4.874;2023-11-18T01:11:03;7.23;;;5.03;;
10934;SDS011;5520;45.752;4.874;2023-11-18T01:13:32;14.10;;;5.83;;
10934;SDS011;5520;45.752;4.874;2023-11-18T01:16:00;8.57;;;5.20;;
10934;SDS011;5520;45.752;4.874;2023-11-18T01:18:29;11.83;;;7.00;;
10934;SDS011;5520;45.752;4.874;2023-11-18T01:20:58;10.53;;;7.43;;
10934;SDS011;5520;45.752;4.874;2023-11-18T01:23:26;12.17;;;6.30;;
10934;SDS011;5520;45.752;4.874;2023-11-18T01:25:56;10.10;;;6.20;;
10934;SDS011;5520;45.752;4.874;2023-11-18T01:28:24;9.20;;;6.13;;
10934;SDS011;5520;45.752;4.874;2023-11-18T01:30:56;10.47;;;6.60;;
10934;SDS011;5520;45.752;4.874;2023-11-18T01:33:24;14.37;;;6.80;;
10934;SDS011;5520;45.752;4.874;2023-11-18T01:35:53;8.57;;;6.47;;
10934;SDS011;5520;45.752;4.874;2023-11-18T01:38:21;6.70;;;5.37;;
10934;SDS011;5520;45.752;4.874;2023-11-18T01:40:49;7.23;;;5.50;;
10934;SDS011;5520;45.752;4.874;2023-11-18T01:43:19;8.53;;;5.07;;
10934;SDS011;5520;45.752;4.874;2023-11-18T01:45:48;8.33;;;5.63;;
10934;SDS011;5520;45.752;4.874;2023-11-18T01:48:17;8.27;;;5.50;;
10934;SDS011;5520;45.752;4.874;2023-11-18T01:50:45;9.70;;;6.67;;
10934;SDS011;5520;45.752;4.874;2023-11-18T01:53:14;8.77;;;6.00;;
10934;SDS011;5520;45.752;4.874;2023-11-18T01:55:42;9.87;;;6.40;;
10934;SDS011;5520;45.752;4.874;2023-11-18T01:58:10;9.73;;;7.50;;
10934;SDS011;5520;45.752;4.874;2023-11-18T02:00:41;10.97;;;6.93;;
10934;SDS011;5520;45.752;4.874;2023-11-18T02:03:09;11.67;;;7.10;;
10934;SDS011;5520;45.752;4.874;2023-11-18T02:05:38;11.30;;;6.87;;
10934;SDS011;5520;45.752;4.874;2023-11-18T02:08:09;14.10;;;7.97;;
10934;SDS011;5520;45.752;4.874;2023-11-18T02:10:43;11.47;;;8.03;;
10934;SDS011;5520;45.752;4.874;2023-11-18T02:13:17;12.40;;;7.10;;
10934;SDS011;5520;45.752;4.874;2023-11-18T02:15:49;13.33;;;8.20;;
10934;SDS011;5520;45.752;4.874;2023-11-18T02:18:17;10.73;;;7.10;;
10934;SDS011;5520;45.752;4.874;2023-11-18T02:20:46;13.50;;;7.63;;
10934;SDS011;5520;45.752;4.874;2023-11-18T02:23:15;13.13;;;7.37;;
10934;SDS011;5520;45.752;4.874;2023-11-18T02:25:45;11.90;;;7.23;;
10934;SDS011;5520;45.752;4.874;2023-11-18T02:28:14;10.53;;;6.77;;
10934;SDS011;5520;45.752;4.874;2023-11-18T02:30:42;8.13;;;6.13;;
10934;SDS011;5520;45.752;4.874;2023-11-18T02:33:14;11.30;;;6.37;;
10934;SDS011;5520;45.752;4.874;2023-11-18T02:35:45;9.03;;;6.30;;
10934;SDS011;5520;45.752;4.874;2023-11-18T02:38:16;10.03;;;6.97;;
10934;SDS011;5520;45.752;4.874;2023-11-18T02:40:47;8.53;;;6.90;;
10934;SDS011;5520;45.752;4.874;2023-11-18T02:43:17;12.27;;;7.00;;
10934;SDS011;5520;45.752;4.874;2023-11-18T02:45:46;14.17;;;7.07;;
10934;SDS011;5520;45.752;4.874;2023-11-18T02:48:15;10.77;;;7.20;;
10934;SDS011;5520;45.752;4.874;2023-11-18T02:50:44;9.73;;;6.83;;
10934;SDS011;5520;45.752;4.874;2023-11-18T02:53:13;11.20;;;7.47;;
10934;SDS011;5520;45.752;4.874;2023-11-18T02:55:41;9.73;;;7.17;;
10934;SDS011;5520;45.752;4.874;2023-11-18T02:58:11;12.33;;;6.20;;
10934;SDS011;5520;45.752;4.874;2023-11-18T03:00:39;11.03;;;7.90;;
10934;SDS011;5520;45.752;4.874;2023-11-18T03:03:07;10.30;;;7.40;;
10934;SDS011;5520;45.752;4.874;2023-11-18T03:05:36;9.23;;;6.73;;
10934;SDS011;5520;45.752;4.874;2023-11-18T03:08:04;9.83;;;6.37;;
10934;SDS011;5520;45.752;4.874;2023-11-18T03:10:34;16.67;;;7.60;;
10934;SDS011;5520;45.752;4.874;2023-11-18T03:13:02;9.87;;;6.80;;
10934;SDS011;5520;45.752;4.874;2023-11-18T03:15:32;9.77;;;7.43;;
10934;SDS011;5520;45.752;4.874;2023-11-18T03:18:00;8.43;;;7.20;;
10934;SDS011;5520;45.752;4.874;2023-11-18T03:20:29;9.63;;;7.13;;
10934;SDS011;5520;45.752;4.874;2023-11-18T03:22:58;11.50;;;7.17;;
10934;SDS011;5520;45.752;4.874;2023-11-18T03:25:27;10.43;;;7.40;;
10934;SDS011;5520;45.752;4.874;2023-11-18T03:27:56;13.53;;;7.37;;
10934;SDS011;5520;45.752;4.874;2023-11-18T03:30:24;11.50;;;7.47;;
10934;SDS011;5520;45.752;4.874;2023-11-18T03:32:54;10.07;;;7.27;;
10934;SDS011;5520;45.752;4.874;2023-11-18T03:35:23;10.07;;;7.57;;
10934;SDS011;5520;45.752;4.874;2023-11-18T03:37:51;11.37;;;7.53;;
10934;SDS011;5520;45.752;4.874;2023-11-18T03:40:20;10.73;;;6.63;;
10934;SDS011;5520;45.752;4.874;2023-11-18T03:42:48;7.60;;;6.63;;
10934;SDS011;5520;45.752;4.874;2023-11-18T03:45:17;10.30;;;6.93;;
10934;SDS011;5520;45.752;4.874;2023-11-18T03:47:45;11.55;;;7.05;;
10934;SDS011;5520;45.752;4.874;2023-11-18T03:50:16;9.40;;;5.80;;
10934;SDS011;5520;45.752;4.874;2023-11-18T03:52:44;7.13;;;5.77;;
10934;SDS011;5520;45.752;4.874;2023-11-18T03:55:12;7.93;;;5.70;;
10934;SDS011;5520;45.752;4.874;2023-11-18T03:57:40;8.77;;;6.37;;
10934;SDS011;5520;45.752;4.874;2023-11-18T04:00:09;9.20;;;6.60;;
10934;SDS011;5520;45.752;4.874;2023-11-18T04:02:38;7.23;;;6.17;;
10934;SDS011;5520;45.752;4.874;2023-11-18T04:05:07;8.93;;;6.30;;
10934;SDS011;5520;45.752;4.874;2023-11-18T04:07:38;7.50;;;5.90;;
10934;SDS011;5520;45.752;4.874;2023-11-18T04:10:08;9.03;;;6.37;;
10934;SDS011;5520;45.752;4.874;2023-11-18T04:12:38;7.30;;;6.37;;
10934;SDS011;5520;45.752;4.874;2023-11-18T04:15:06;11.10;;;6.17;;
10934;SDS011;5520;45.752;4.874;2023-11-18T04:17:38;9.20;;;6.43;;
10934;SDS011;5520;45.752;4.874;2023-11-18T04:20:09;7.13;;;5.90;;
10934;SDS011;5520;45.752;4.874;2023-11-18T04:22:41;10.43;;;6.43;;
10934;SDS011;5520;45.752;4.874;2023-11-18T04:25:09;7.67;;;5.97;;
10934;SDS011;5520;45.752;4.874;2023-11-18T04:27:40;9.87;;;6.43;;
10934;SDS011;5520;45.752;4.874;2023-11-18T04:30:12;9.40;;;6.83;;
10934;SDS011;5520;45.752;4.874;2023-11-18T04:32:41;6.37;;;5.70;;
10934;SDS011;5520;45.752;4.874;2023-11-18T04:35:10;9.70;;;6.70;;
10934;SDS011;5520;45.752;4.874;2023-11-18T04:37:41;9.07;;;6.90;;
10934;SDS011;5520;45.752;4.874;2023-11-18T04:40:12;10.97;;;7.00;;
10934;SDS011;5520;45.752;4.874;2023-11-18T04:42:41;11.17;;;6.90;;
10934;SDS011;5520;45.752;4.874;2023-11-18T04:45:09;13.20;;;7.70;;
10934;SDS011;5520;45.752;4.874;2023-11-18T04:47:38;10.43;;;7.07;;
10934;SDS011;5520;45.752;4.874;2023-11-18T04:50:07;12.03;;;7.00;;
10934;SDS011;5520;45.752;4.874;2023-11-18T04:52:36;9.57;;;6.90;;
10934;SDS011;5520;45.752;4.874;2023-11-18T04:55:06;10.70;;;7.03;;
10934;SDS011;5520;45.752;4.874;2023-11-18T04:57:37;10.00;;;6.90;;
10934;SDS011;5520;45.752;4.874;2023-11-18T05:00:06;10.30;;;6.87;;
10934;SDS011;5520;45.752;4.874;2023-11-18T05:02:38;8.73;;;6.43;;
10934;SDS011;5520;45.752;4.874;2023-11-18T05:05:07;13.13;;;7.37;;
10934;SDS011;5520;45.752;4.874;2023-11-18T05:07:37;11.73;;;7.87;;
10934;SDS011;5520;45.752;4.874;2023-11-18T05:10:07;10.93;;;7.20;;
10934;SDS011;5520;45.752;4.874;2023-11-18T05:12:36;9.73;;;6.80;;
10934;SDS011;5520;45.752;4.874;2023-11-18T05:15:06;10.60;;;7.37;;
10934;SDS011;5520;45.752;4.874;2023-11-18T05:17:35;9.97;;;7.43;;
10934;SDS011;5520;45.752;4.874;2023-11-18T05:20:06;10.10;;;7.20;;
10934;SDS011;5520;45.752;4.874;2023-11-18T05:22:36;8.47;;;6.80;;
10934;SDS011;5520;45.752;4.874;2023-11-18T05:25:07;13.27;;;6.67;;
10934;SDS011;5520;45.752;4.874;2023-11-18T05:27:36;9.53;;;6.50;;
10934;SDS011;5520;45.752;4.874;2023-11-18T05:30:07;8.03;;;6.50;;
10934;SDS011;5520;45.752;4.874;2023-11-18T05:32:36;8.03;;;6.77;;
10934;SDS011;5520;45.752;4.874;2023-11-18T05:35:11;7.30;;;6.30;;
10934;SDS011;5520;45.752;4.874;2023-11-18T05:37:39;6.87;;;5.87;;
10934;SDS011;5520;45.752;4.874;2023-11-18T05:40:10;8.13;;;5.67;;
10934;SDS011;5520;45.752;4.874;2023-11-18T05:42:42;7.00;;;5.83;;
10934;SDS011;5520;45.752;4.874;2023-11-18T05:45:13;8.53;;;6.23;;
10934;SDS011;5520;45.752;4.874;2023-11-18T05:47:54;8.23;;;6.03;;
10934;SDS011;5520;45.752;4.874;2023-11-18T05:50:24;8.43;;;6.10;;
10934;SDS011;5520;45.752;4.874;2023-11-18T05:52:53;7.40;;;5.80;;
10934;SDS011;5520;45.752;4.874;2023-11-18T05:55:23;7.10;;;5.53;;
10934;SDS011;5520;45.752;4.874;2023-11-18T05:57:52;8.20;;;5.87;;
10934;SDS011;5520;45.752;4.874;2023-11-18T06:00:20;9.27;;;6.67;;
10934;SDS011;5520;45.752;4.874;2023-11-18T06:03:01;9.23;;;6.07;;
10934;SDS011;5520;45.752;4.874;2023-11-18T06:05:30;9.43;;;6.40;;
10934;SDS011;5520;45.752;4.874;2023-11-18T06:08:03;8.73;;;6.60;;
10934;SDS011;5520;45.752;4.874;2023-11-18T06:10:33;8.17;;;6.13;;
10934;SDS011;5520;45.752;4.874;2023-11-18T06:13:02;9.67;;;6.37;;
10934;SDS011;5520;45.752;4.874;2023-11-18T06:15:31;7.33;;;5.93;;
10934;SDS011;5520;45.752;4.874;2023-11-18T06:18:02;10.77;;;6.30;;
10934;SDS011;5520;45.752;4.874;2023-11-18T06:20:33;6.83;;;5.73;;
10934;SDS011;5520;45.752;4.874;2023-11-18T06:23:03;9.97;;;6.20;;
10934;SDS011;5520;45.752;4.874;2023-11-18T06:25:31;8.33;;;6.23;;
10934;SDS011;5520;45.752;4.874;2023-11-18T06:28:03;8.23;;;5.83;;
10934;SDS011;5520;45.752;4.874;2023-11-18T06:30:34;14.63;;;8.63;;
10934;SDS011;5520;45.752;4.874;2023-11-18T06:33:03;10.10;;;6.77;;
10934;SDS011;5520;45.752;4.874;2023-11-18T06:35:31;10.83;;;7.37;;
10934;SDS011;5520;45.752;4.874;2023-11-18T06:38:01;9.97;;;7.17;;
10934;SDS011;5520;45.752;4.874;2023-11-18T06:40:29;8.10;;;6.50;;
10934;SDS011;5520;45.752;4.874;2023-11-18T06:42:57;7.97;;;6.20;;
10934;SDS011;5520;45.752;4.874;2023-11-18T06:45:30;9.70;;;6.20;;
10934;SDS011;5520;45.752;4.874;2023-11-18T06:47:58;8.47;;;6.37;;
10934;SDS011;5520;45.752;4.874;2023-11-18T06:50:27;10.83;;;6.97;;
10934;SDS011;5520;45.752;4.874;2023-11-18T06:52:56;10.10;;;6.07;;
10934;SDS011;5520;45.752;4.874;2023-11-18T06:55:26;8.27;;;7.00;;
10934;SDS011;5520;45.752;4.874;2023-11-18T06:57:54;10.13;;;6.53;;
10934;SDS011;5520;45.752;4.874;2023-11-18T07:00:23;7.93;;;6.30;;
10934;SDS011;5520;45.752;4.874;2023-11-18T07:02:56;10.90;;;6.90;;
10934;SDS011;5520;45.752;4.874;2023-11-18T07:05:25;9.27;;;6.90;;
10934;SDS011;5520;45.752;4.874;2023-11-18T07:07:53;8.23;;;5.83;;
10934;SDS011;5520;45.752;4.874;2023-11-18T07:10:22;8.00;;;6.33;;
10934;SDS011;5520;45.752;4.874;2023-11-18T07:12:50;9.43;;;6.43;;
10934;SDS011;5520;45.752;4.874;2023-11-18T07:15:18;9.37;;;5.90;;
10934;SDS011;5520;45.752;4.874;2023-11-18T07:17:47;11.63;;;6.43;;
10934;SDS011;5520;45.752;4.874;2023-11-18T07:20:17;8.10;;;6.50;;
10934;SDS011;5520;45.752;4.874;2023-11-18T07:22:45;8.97;;;6.90;;
10934;SDS011;5520;45.752;4.874;2023-11-18T07:25:14;9.53;;;6.90;;
10934;SDS011;5520;45.752;4.874;2023-11-18T07:27:42;11.23;;;6.40;;
10934;SDS011;5520;45.752;4.874;2023-11-18T07:30:11;10.43;;;6.67;;
10934;SDS011;5520;45.752;4.874;2023-11-18T07:32:40;9.43;;;6.60;;
10934;SDS011;5520;45.752;4.874;2023-11-18T07:35:09;8.23;;;6.73;;
10934;SDS011;5520;45.752;4.874;2023-11-18T07:37:40;8.70;;;6.73;;
10934;SDS011;5520;45.752;4.874;2023-11-18T07:40:08;9.10;;;6.73;;
10934;SDS011;5520;45.752;4.874;2023-11-18T07:42:48;11.37;;;7.90;;
10934;SDS011;5520;45.752;4.874;2023-11-18T07:45:16;13.50;;;7.80;;
10934;SDS011;5520;45.752;4.874;2023-11-18T07:47:45;9.00;;;7.13;;
10934;SDS011;5520;45.752;4.874;2023-11-18T07:50:15;9.57;;;7.10;;
10934;SDS011;5520;45.752;4.874;2023-11-18T07:52:46;11.57;;;7.17;;
10934;SDS011;5520;45.752;4.874;2023-11-18T07:55:14;11.53;;;7.80;;
10934;SDS011;5520;45.752;4.874;2023-11-18T07:57:45;9.67;;;7.53;;
10934;SDS011;5520;45.752;4.874;2023-11-18T08:00:14;9.47;;;6.93;;
10934;SDS011;5520;45.752;4.874;2023-11-18T08:02:43;8.60;;;6.50;;
10934;SDS011;5520;45.752;4.874;2023-11-18T08:05:12;9.63;;;7.40;;
10934;SDS011;5520;45.752;4.874;2023-11-18T08:07:42;7.43;;;6.43;;
10934;SDS011;5520;45.752;4.874;2023-11-18T08:10:13;10.53;;;6.73;;
10934;SDS011;5520;45.752;4.874;2023-11-18T08:12:46;9.63;;;7.10;;
10934;SDS011;5520;45.752;4.874;2023-11-18T08:15:14;8.37;;;7.47;;
10934;SDS011;5520;45.752;4.874;2023-11-18T08:17:42;8.83;;;6.77;;
10934;SDS011;5520;45.752;4.874;2023-11-18T08:20:11;11.17;;;7.33;;
10934;SDS011;5520;45.752;4.874;2023-11-18T08:22:42;10.57;;;7.27;;
10934;SDS011;5520;45.752;4.874;2023-11-18T08:25:12;10.60;;;7.43;;
10934;SDS011;5520;45.752;4.874;2023-11-18T08:27:42;8.93;;;6.93;;
10934;SDS011;5520;45.752;4.874;2023-11-18T08:30:10;7.87;;;7.00;;
10934;SDS011;5520;45.752;4.874;2023-11-18T08:32:40;9.27;;;7.40;;
10934;SDS011;5520;45.752;4.874;2023-11-18T08:35:11;11.80;;;7.43;;
10934;SDS011;5520;45.752;4.874;2023-11-18T08:37:40;12.47;;;7.70;;
10934;SDS011;5520;45.752;4.874;2023-11-18T08:40:09;10.43;;;7.30;;
10934;SDS011;5520;45.752;4.874;2023-11-18T08:42:43;8.53;;;6.60;;
10934;SDS011;5520;45.752;4.874;2023-11-18T08:45:17;11.17;;;7.23;;
10934;SDS011;5520;45.752;4.874;2023-11-18T08:47:48;13.63;;;7.53;;
10934;SDS011;5520;45.752;4.874;2023-11-18T08:50:20;11.83;;;8.57;;
10934;SDS011;5520;45.752;4.874;2023-11-18T08:52:50;7.60;;;6.73;;
10934;SDS011;5520;45.752;4.874;2023-11-18T08:55:26;9.70;;;7.00;;
10934;SDS011;5520;45.752;4.874;2023-11-18T08:58:09;10.73;;;7.03;;
10934;SDS011;5520;45.752;4.874;2023-11-18T09:00:47;9.80;;;6.80;;
10934;SDS011;5520;45.752;4.874;2023-11-18T09:03:19;12.13;;;7.30;;
10934;SDS011;5520;45.752;4.874;2023-11-18T09:05:55;12.87;;;7.17;;
10934;SDS011;5520;45.752;4.874;2023-11-18T09:08:31;14.57;;;7.37;;
10934;SDS011;5520;45.752;4.874;2023-11-18T09:11:02;10.93;;;7.30;;
10934;SDS011;5520;45.752;4.874;2023-11-18T09:13:33;9.27;;;7.03;;
10934;SDS011;5520;45.752;4.874;2023-11-18T09:16:03;10.07;;;7.70;;
10934;SDS011;5520;45.752;4.874;2023-11-18T09:18:35;10.57;;;8.60;;
10934;SDS011;5520;45.752;4.874;2023-11-18T09:21:09;12.03;;;6.80;;
10934;SDS011;5520;45.752;4.874;2023-11-18T09:23:43;10.57;;;6.60;;
10934;SDS011;5520;45.752;4.874;2023-11-18T09:26:12;7.97;;;6.83;;
10934;SDS011;5520;45.752;4.874;2023-11-18T09:28:43;16.10;;;7.63;;
10934;SDS011;5520;45.752;4.874;2023-11-18T09:31:12;15.53;;;7.37;;
10934;SDS011;5520;45.752;4.874;2023-11-18T09:33:41;11.77;;;7.47;;
10934;SDS011;5520;45.752;4.874;2023-11-18T09:36:13;9.20;;;7.23;;
10934;SDS011;5520;45.752;4.874;2023-11-18T09:38:44;11.60;;;6.60;;
10934;SDS011;5520;45.752;4.874;2023-11-18T09:41:15;12.60;;;6.57;;
10934;SDS011;5520;45.752;4.874;2023-11-18T09:43:45;10.63;;;7.23;;
10934;SDS011;5520;45.752;4.874;2023-11-18T09:46:16;8.60;;;6.63;;
10934;SDS011;5520;45.752;4.874;2023-11-18T09:48:46;11.47;;;6.13;;
10934;SDS011;5520;45.752;4.874;2023-11-18T09:51:19;9.43;;;6.47;;
10934;SDS011;5520;45.752;4.874;2023-11-18T09:53:49;8.47;;;6.60;;
10934;SDS011;5520;45.752;4.874;2023-11-18T09:56:23;9.50;;;6.27;;
10934;SDS011;5520;45.752;4.874;2023-11-18T09:58:57;10.23;;;5.97;;
10934;SDS011;5520;45.752;4.874;2023-11-18T10:01:30;10.23;;;6.10;;
10934;SDS011;5520;45.752;4.874;2023-11-18T10:04:04;7.77;;;5.20;;
10934;SDS011;5520;45.752;4.874;2023-11-18T10:06:34;9.83;;;5.37;;
10934;SDS011;5520;45.752;4.874;2023-11-18T10:09:03;6.77;;;5.33;;
10934;SDS011;5520;45.752;4.874;2023-11-18T10:11:42;7.83;;;4.90;;
10934;SDS011;5520;45.752;4.874;2023-11-18T10:14:15;9.13;;;5.77;;
10934;SDS011;5520;45.752;4.874;2023-11-18T10:16:44;7.30;;;5.63;;
10934;SDS011;5520;45.752;4.874;2023-11-18T10:19:14;7.03;;;5.07;;
10934;SDS011;5520;45.752;4.874;2023-11-18T10:21:45;7.30;;;4.97;;
10934;SDS011;5520;45.752;4.874;2023-11-18T10:24:16;8.17;;;4.70;;
10934;SDS011;5520;45.752;4.874;2023-11-18T10:26:54;6.93;;;4.93;;
10934;SDS011;5520;45.752;4.874;2023-11-18T10:29:25;5.50;;;4.50;;
10934;SDS011;5520;45.752;4.874;2023-11-18T10:32:05;4.83;;;4.00;;
10934;SDS011;5520;45.752;4.874;2023-11-18T10:34:36;4.87;;;4.00;;
10934;SDS011;5520;45.752;4.874;2023-11-18T10:44:06;5.97;;;4.33;;
10934;SDS011;5520;45.752;4.874;2023-11-18T10:46:40;6.17;;;3.90;;
10934;SDS011;5520;45.752;4.874;2023-11-18T10:49:08;6.63;;;5.07;;
10934;SDS011;5520;45.752;4.874;2023-11-18T10:51:38;5.93;;;5.30;;
10934;SDS011;5520;45.752;4.874;2023-11-18T10:54:07;6.83;;;5.60;;
10934;SDS011;5520;45.752;4.874;2023-11-18T10:56:46;7.97;;;5.53;;
10934;SDS011;5520;45.752;4.874;2023-11-18T10:59:14;6.63;;;3.90;;
10934;SDS011;5520;45.752;4.874;2023-11-18T11:01:44;6.27;;;4.03;;
10934;SDS011;5520;45.752;4.874;2023-11-18T11:04:16;5.27;;;4.33;;
10934;SDS011;5520;45.752;4.874;2023-11-18T11:06:48;6.40;;;3.53;;
10934;SDS011;5520;45.752;4.874;2023-11-18T11:09:24;6.33;;;3.90;;
10934;SDS011;5520;45.752;4.874;2023-11-18T11:11:55;6.10;;;4.20;;
10934;SDS011;5520;45.752;4.874;2023-11-18T11:14:34;6.40;;;3.90;;
10934;SDS011;5520;45.752;4.874;2023-11-18T11:17:08;4.27;;;3.33;;
10934;SDS011;5520;45.752;4.874;2023-11-18T11:19:46;6.57;;;3.70;;
10934;SDS011;5520;45.752;4.874;2023-11-18T11:22:24;7.53;;;4.10;;
10934;SDS011;5520;45.752;4.874;2023-11-18T11:24:54;5.00;;;3.33;;
10934;SDS011;5520;45.752;4.874;2023-11-18T11:27:29;5.80;;;3.67;;
10934;SDS011;5520;45.752;4.874;2023-11-18T11:30:07;3.97;;;3.57;;
10934;SDS011;5520;45.752;4.874;2023-11-18T11:32:51;8.70;;;3.57;;
10934;SDS011;5520;45.752;4.874;2023-11-18T11:35:22;6.40;;;3.90;;
10934;SDS011;5520;45.752;4.874;2023-11-18T11:37:52;5.60;;;3.90;;
10934;SDS011;5520;45.752;4.874;2023-11-18T11:40:30;4.27;;;3.50;;
10934;SDS011;5520;45.752;4.874;2023-11-18T11:42:58;5.47;;;3.93;;
10934;SDS011;5520;45.752;4.874;2023-11-18T11:45:31;6.37;;;4.33;;
10934;SDS011;5520;45.752;4.874;2023-11-18T11:48:02;6.30;;;4.37;;
10934;SDS011;5520;45.752;4.874;2023-11-18T11:50:53;4.87;;;3.20;;
10934;SDS011;5520;45.752;4.874;2023-11-18T11:53:26;4.17;;;3.67;;
10934;SDS011;5520;45.752;4.874;2023-11-18T11:55:57;4.73;;;3.27;;
10934;SDS011;5520;45.752;4.874;2023-11-18T11:58:34;7.13;;;3.80;;
10934;SDS011;5520;45.752;4.874;2023-11-18T12:01:14;4.60;;;3.63;;
10934;SDS011;5520;45.752;4.874;2023-11-18T12:03:47;5.07;;;3.50;;
10934;SDS011;5520;45.752;4.874;2023-11-18T12:06:18;6.90;;;3.67;;
10934;SDS011;5520;45.752;4.874;2023-11-18T12:08:51;5.03;;;3.23;;
10934;SDS011;5520;45.752;4.874;2023-11-18T12:11:19;4.40;;;2.97;;
10934;SDS011;5520;45.752;4.874;2023-11-18T12:14:02;3.80;;;3.20;;
10934;SDS011;5520;45.752;4.874;2023-11-18T12:19:31;3.27;;;2.70;;
10934;SDS011;5520;45.752;4.874;2023-11-18T12:22:03;4.27;;;3.53;;
10934;SDS011;5520;45.752;4.874;2023-11-18T12:24:39;3.57;;;2.90;;
10934;SDS011;5520;45.752;4.874;2023-11-18T12:27:08;3.50;;;2.90;;
10934;SDS011;5520;45.752;4.874;2023-11-18T12:29:41;4.20;;;3.80;;
10934;SDS011;5520;45.752;4.874;2023-11-18T12:32:10;3.30;;;2.57;;
10934;SDS011;5520;45.752;4.874;2023-11-18T12:34:51;6.10;;;2.70;;
10934;SDS011;5520;45.752;4.874;2023-11-18T12:40:13;2.93;;;2.40;;
10934;SDS011;5520;45.752;4.874;2023-11-18T12:42:52;5.07;;;2.70;;
10934;SDS011;5520;45.752;4.874;2023-11-18T12:45:37;3.77;;;2.53;;
10934;SDS011;5520;45.752;4.874;2023-11-18T12:48:14;4.83;;;2.17;;
10934;SDS011;5520;45.752;4.874;2023-11-18T12:50:44;3.03;;;2.20;;
10934;SDS011;5520;45.752;4.874;2023-11-18T12:53:23;3.27;;;2.03;;
10934;SDS011;5520;45.752;4.874;2023-11-18T12:55:52;2.73;;;2.03;;
10934;SDS011;5520;45.752;4.874;2023-11-18T12:58:21;1.90;;;1.50;;
10934;SDS011;5520;45.752;4.874;2023-11-18T13:00:49;2.03;;;1.80;;
10934;SDS011;5520;45.752;4.874;2023-11-18T13:03:18;6.10;;;2.10;;
10934;SDS011;5520;45.752;4.874;2023-11-18T13:05:48;1.63;;;1.40;;
10934;SDS011;5520;45.752;4.874;2023-11-18T13:08:18;2.67;;;1.53;;
10934;SDS011;5520;45.752;4.874;2023-11-18T13:10:49;2.87;;;1.97;;
10934;SDS011;5520;45.752;4.874;2023-11-18T13:13:19;1.97;;;1.60;;
10934;SDS011;5520;45.752;4.874;2023-11-18T13:15:49;1.30;;;1.20;;
10934;SDS011;5520;45.752;4.874;2023-11-18T13:18:18;1.70;;;1.60;;
10934;SDS011;5520;45.752;4.874;2023-11-18T13:20:55;1.17;;;1.10;;
10934;SDS011;5520;45.752;4.874;2023-11-18T13:23:27;1.53;;;1.40;;
10934;SDS011;5520;45.752;4.874;2023-11-18T13:25:57;3.07;;;1.60;;
10934;SDS011;5520;45.752;4.874;2023-11-18T13:28:28;4.33;;;1.60;;
10934;SDS011;5520;45.752;4.874;2023-11-18T13:30:56;1.50;;;1.40;;
10934;SDS011;5520;45.752;4.874;2023-11-18T13:33:25;1.80;;;1.63;;
10934;SDS011;5520;45.752;4.874;2023-11-18T13:35:55;1.67;;;1.50;;
10934;SDS011;5520;45.752;4.874;2023-11-18T13:38:25;2.30;;;1.70;;
10934;SDS011;5520;45.752;4.874;2023-11-18T13:40:53;1.90;;;1.80;;
10934;SDS011;5520;45.752;4.874;2023-11-18T13:43:22;2.87;;;1.63;;
10934;SDS011;5520;45.752;4.874;2023-11-18T13:45:50;2.27;;;1.53;;
10934;SDS011;5520;45.752;4.874;2023-11-18T13:48:20;2.07;;;1.60;;
10934;SDS011;5520;45.752;4.874;2023-11-18T13:50:50;2.20;;;1.50;;
10934;SDS011;5520;45.752;4.874;2023-11-18T13:53:21;2.23;;;1.50;;
10934;SDS011;5520;45.752;4.874;2023-11-18T13:55:49;1.67;;;1.57;;
10934;SDS011;5520;45.752;4.874;2023-11-18T13:58:17;2.63;;;1.83;;
10934;SDS011;5520;45.752;4.874;2023-11-18T14:00:46;2.77;;;1.90;;
10934;SDS011;5520;45.752;4.874;2023-11-18T14:03:15;2.23;;;1.63;;
10934;SDS011;5520;45.752;4.874;2023-11-18T14:05:44;1.60;;;1.50;;
10934;SDS011;5520;45.752;4.874;2023-11-18T14:08:17;2.63;;;1.90;;
10934;SDS011;5520;45.752;4.874;2023-11-18T14:10:51;2.47;;;1.50;;
10934;SDS011;5520;45.752;4.874;2023-11-18T14:13:29;1.67;;;1.43;;
10934;SDS011;5520;45.752;4.874;2023-11-18T14:15:57;1.53;;;1.43;;
10934;SDS011;5520;45.752;4.874;2023-11-18T14:18:28;1.50;;;1.40;;
10934;SDS011;5520;45.752;4.874;2023-11-18T14:20:57;1.43;;;1.23;;
10934;SDS011;5520;45.752;4.874;2023-11-18T14:23:27;1.80;;;1.27;;
10934;SDS011;5520;45.752;4.874;2023-11-18T14:25:57;3.30;;;1.37;;
10934;SDS011;5520;45.752;4.874;2023-11-18T14:28:25;1.70;;;1.53;;
10934;SDS011;5520;45.752;4.874;2023-11-18T14:30:54;1.80;;;1.70;;
10934;SDS011;5520;45.752;4.874;2023-11-18T14:33:22;2.73;;;1.27;;
10934;SDS011;5520;45.752;4.874;2023-11-18T14:36:02;4.93;;;1.67;;
10934;SDS011;5520;45.752;4.874;2023-11-18T14:38:32;2.10;;;1.80;;
10934;SDS011;5520;45.752;4.874;2023-11-18T14:41:04;2.33;;;1.73;;
10934;SDS011;5520;45.752;4.874;2023-11-18T14:43:37;1.73;;;1.63;;
10934;SDS011;5520;45.752;4.874;2023-11-18T14:46:12;1.53;;;1.40;;
10934;SDS011;5520;45.752;4.874;2023-11-18T14:48:41;2.60;;;1.70;;
10934;SDS011;5520;45.752;4.874;2023-11-18T14:51:09;2.67;;;1.73;;
10934;SDS011;5520;45.752;4.874;2023-11-18T14:53:37;2.53;;;1.60;;
10934;SDS011;5520;45.752;4.874;2023-11-18T14:56:07;1.70;;;1.60;;
10934;SDS011;5520;45.752;4.874;2023-11-18T14:58:39;3.80;;;1.60;;
10934;SDS011;5520;45.752;4.874;2023-11-18T15:01:18;2.13;;;1.90;;
10934;SDS011;5520;45.752;4.874;2023-11-18T15:03:58;2.83;;;2.30;;
10934;SDS011;5520;45.752;4.874;2023-11-18T15:06:26;1.73;;;1.57;;
10934;SDS011;5520;45.752;4.874;2023-11-18T15:08:54;2.03;;;1.57;;
10934;SDS011;5520;45.752;4.874;2023-11-18T15:11:25;2.70;;;1.70;;
10934;SDS011;5520;45.752;4.874;2023-11-18T15:13:53;1.83;;;1.67;;
10934;SDS011;5520;45.752;4.874;2023-11-18T15:16:23;1.70;;;1.60;;
10934;SDS011;5520;45.752;4.874;2023-11-18T15:18:51;2.23;;;1.50;;
10934;SDS011;5520;45.752;4.874;2023-11-18T15:21:19;5.10;;;1.87;;
10934;SDS011;5520;45.752;4.874;2023-11-18T15:23:48;1.63;;;1.40;;
10934;SDS011;5520;45.752;4.874;2023-11-18T15:26:16;2.80;;;2.17;;
10934;SDS011;5520;45.752;4.874;2023-11-18T15:28:46;2.73;;;2.00;;
10934;SDS011;5520;45.752;4.874;2023-11-18T15:31:16;1.97;;;1.80;;